createdAt,value
2022-12-23T00:01:26.624Z,35.58
2022-12-23T00:03:57.243Z,35.49
2022-12-23T00:06:23.857Z,35.45
2022-12-23T00:08:57.997Z,35.31
2022-12-23T00:11:25.945Z,35.27
2022-12-23T00:14:16.298Z,35.49
2022-12-23T00:16:46.998Z,35.04
2022-12-23T00:19:13.586Z,35.65
2022-12-23T00:21:40.207Z,35.11
2022-12-23T00:24:06.857Z,35.01
2022-12-23T00:26:33.403Z,35.39
2022-12-23T00:28:59.959Z,34.99
2022-12-23T00:31:26.641Z,35.48
2022-12-23T00:33:56.554Z,35.33
2022-12-23T00:36:27.646Z,35.58
2022-12-23T00:39:14.370Z,35.36
2022-12-23T00:41:59.677Z,35.59
2022-12-23T00:44:26.697Z,35.57
2022-12-23T00:46:53.310Z,35.52
2022-12-23T00:49:39.375Z,35.27
2022-12-23T00:52:08.235Z,35.25
2022-12-23T00:54:34.913Z,34.97
2022-12-23T00:57:01.856Z,35.16
2022-12-23T00:59:28.503Z,34.93
2022-12-23T01:02:14.054Z,35.35
2022-12-23T01:04:59.464Z,35.31
2022-12-23T01:07:26.034Z,35.06
2022-12-23T01:09:52.600Z,35.35
2022-12-23T01:12:19.313Z,34.48
2022-12-23T01:14:45.969Z,35.39
2022-12-23T01:17:12.595Z,35.32
2022-12-23T01:19:39.269Z,35.35
2022-12-23T01:22:05.874Z,35.02
2022-12-23T01:24:33.413Z,35.39
2022-12-23T01:27:00.828Z,35.19
2022-12-23T01:29:28.901Z,35.12
2022-12-23T01:31:55.694Z,34.98
2022-12-23T01:34:22.477Z,35.39
2022-12-23T01:36:49.027Z,35.18
2022-12-23T01:39:15.666Z,35.41
2022-12-23T01:42:00.955Z,35.19
2022-12-23T01:45:02.360Z,35.43
2022-12-23T01:47:37.757Z,35.21
2022-12-23T01:50:19.545Z,35.00
2022-12-23T01:52:52.648Z,35.24
2022-12-23T01:55:23.607Z,34.47
2022-12-23T01:57:51.556Z,35.08
2022-12-23T02:00:36.860Z,34.94
2022-12-23T02:03:42.163Z,34.92
2022-12-23T02:06:44.977Z,34.89
2022-12-23T02:09:21.090Z,35.03
2022-12-23T02:12:35.329Z,34.80
2022-12-23T02:15:36.463Z,34.81
2022-12-23T02:18:21.110Z,35.01
2022-12-23T02:21:08.893Z,34.81
2022-12-23T02:23:57.281Z,35.06
2022-12-23T02:26:54.819Z,35.07
2022-12-23T02:29:46.172Z,34.63
2022-12-23T02:32:34.327Z,35.35
2022-12-23T02:35:10.311Z,34.93
2022-12-23T02:38:01.448Z,34.65
2022-12-23T02:40:40.586Z,35.15
2022-12-23T02:43:36.366Z,34.96
2022-12-23T02:46:05.606Z,34.57
2022-12-23T02:48:40.813Z,35.30
2022-12-23T02:51:10.962Z,35.10
2022-12-23T02:53:50.970Z,34.96
2022-12-23T02:56:20.967Z,34.59
2022-12-23T02:59:01.689Z,35.09
2022-12-23T03:01:29.787Z,34.93
2022-12-23T03:03:56.548Z,34.84
2022-12-23T03:06:27.211Z,34.55
2022-12-23T03:08:56.363Z,35.29
2022-12-23T03:11:28.461Z,35.10
2022-12-23T03:14:01.015Z,35.46
2022-12-23T03:16:37.125Z,35.27
2022-12-23T03:19:26.716Z,34.81
2022-12-23T03:22:16.219Z,35.08
2022-12-23T03:24:42.707Z,35.49
2022-12-23T03:27:15.096Z,35.42
2022-12-23T03:29:54.619Z,35.06
2022-12-23T03:32:23.517Z,35.00
2022-12-23T03:34:54.209Z,35.24
2022-12-23T03:37:24.789Z,35.49
2022-12-23T03:40:07.580Z,35.43
2022-12-23T03:42:37.302Z,34.88
2022-12-23T03:45:37.494Z,34.99
2022-12-23T03:48:07.059Z,35.68
2022-12-23T03:50:35.220Z,35.77
2022-12-23T03:53:16.773Z,35.49
2022-12-23T03:55:49.587Z,35.90
2022-12-23T03:58:21.870Z,35.84
2022-12-23T04:00:59.803Z,36.12
2022-12-23T04:04:01.782Z,35.70
2022-12-23T04:06:34.011Z,35.63
2022-12-23T04:09:02.048Z,36.05
2022-12-23T04:11:29.906Z,35.62
2022-12-23T04:13:56.577Z,36.09
2022-12-23T04:16:23.304Z,35.71
2022-12-23T04:18:49.963Z,35.52
2022-12-23T04:21:16.518Z,36.30
2022-12-23T04:23:43.083Z,36.08
2022-12-23T04:26:09.649Z,35.83
2022-12-23T04:28:36.205Z,35.89
2022-12-23T04:31:02.830Z,36.20
2022-12-23T04:33:29.451Z,36.02
2022-12-23T04:35:55.996Z,36.06
2022-12-23T04:38:22.631Z,35.99
2022-12-23T04:40:49.267Z,35.87
2022-12-23T04:43:15.854Z,35.71
2022-12-23T04:45:42.395Z,35.64
2022-12-23T04:48:09.529Z,35.83
2022-12-23T04:50:36.082Z,36.14
2022-12-23T04:53:02.668Z,35.76
2022-12-23T04:55:29.222Z,35.93
2022-12-23T04:57:55.791Z,35.78
2022-12-23T05:00:22.439Z,35.69
2022-12-23T05:02:49.157Z,35.67
2022-12-23T05:05:15.891Z,36.13
2022-12-23T05:07:42.468Z,35.41
2022-12-23T05:10:09.885Z,35.96
2022-12-23T05:12:36.440Z,35.42
2022-12-23T05:15:03.034Z,35.95
2022-12-23T05:17:29.653Z,35.85
2022-12-23T05:19:56.223Z,35.44
2022-12-23T05:22:22.804Z,35.96
2022-12-23T05:24:49.367Z,35.54
2022-12-23T05:27:15.917Z,35.30
2022-12-23T05:29:42.489Z,35.75
2022-12-23T05:32:09.228Z,35.97
2022-12-23T05:34:35.855Z,35.37
2022-12-23T05:37:02.399Z,35.31
2022-12-23T05:39:28.977Z,35.21
2022-12-23T05:41:55.568Z,35.15
2022-12-23T05:44:22.232Z,35.52
2022-12-23T05:46:48.797Z,35.58
2022-12-23T05:49:15.432Z,35.42
2022-12-23T05:51:41.997Z,35.17
2022-12-23T05:54:08.600Z,35.74
2022-12-23T05:56:35.144Z,35.50
2022-12-23T05:59:02.882Z,35.69
2022-12-23T06:01:29.507Z,35.91
2022-12-23T06:03:56.175Z,35.31
2022-12-23T06:06:22.844Z,35.53
2022-12-23T06:08:52.048Z,35.79
2022-12-23T06:11:22.382Z,35.78
2022-12-23T06:13:48.941Z,34.86
2022-12-23T06:16:15.537Z,35.39
2022-12-23T06:18:42.167Z,35.39
2022-12-23T06:21:08.799Z,35.17
2022-12-23T06:23:35.352Z,35.62
2022-12-23T06:26:02.629Z,36.18
2022-12-23T06:28:29.401Z,35.49
2022-12-23T06:30:57.184Z,36.07
2022-12-23T06:33:24.571Z,35.28
2022-12-23T06:35:51.118Z,35.68
2022-12-23T06:38:17.714Z,35.87
2022-12-23T06:40:44.251Z,36.40
2022-12-23T06:43:13.334Z,36.20
2022-12-23T06:45:40.668Z,36.05
2022-12-23T06:48:07.496Z,36.31
2022-12-23T06:50:34.071Z,35.36
2022-12-23T06:53:00.614Z,35.94
2022-12-23T06:55:27.259Z,35.84
2022-12-23T06:57:53.804Z,36.11
2022-12-23T07:00:20.571Z,36.49
2022-12-23T07:02:47.231Z,36.12
2022-12-23T07:05:13.972Z,36.19
2022-12-23T07:07:40.516Z,36.15
2022-12-23T07:10:07.798Z,36.49
2022-12-23T07:12:34.359Z,36.37
2022-12-23T07:15:00.913Z,36.63
2022-12-23T07:17:27.911Z,36.61
2022-12-23T07:19:54.475Z,36.37
2022-12-23T07:22:21.268Z,36.33
2022-12-23T07:24:47.816Z,36.22
2022-12-23T07:27:14.391Z,36.00
2022-12-23T07:29:40.951Z,36.25
2022-12-23T07:32:07.583Z,36.30
2022-12-23T07:34:34.835Z,36.44
2022-12-23T07:37:02.034Z,36.78
2022-12-23T07:39:28.804Z,36.02
2022-12-23T07:42:16.488Z,36.29
2022-12-23T07:44:41.919Z,36.00
2022-12-23T07:47:08.773Z,36.29
2022-12-23T07:49:35.386Z,36.14
2022-12-23T07:52:01.982Z,36.14
2022-12-23T07:54:28.555Z,36.66
2022-12-23T07:56:56.126Z,36.22
2022-12-23T07:59:25.749Z,36.65
2022-12-23T08:01:52.573Z,36.41
2022-12-23T08:04:19.239Z,36.17
2022-12-23T08:06:45.835Z,36.19
2022-12-23T08:09:12.416Z,35.92
2022-12-23T08:11:38.979Z,36.04
2022-12-23T08:14:05.610Z,36.04
2022-12-23T08:16:36.516Z,35.98
2022-12-23T08:19:06.233Z,36.06
2022-12-23T08:21:32.806Z,36.12
2022-12-23T08:23:59.413Z,36.22
2022-12-23T08:26:26.261Z,35.81
2022-12-23T08:28:53.602Z,36.29
2022-12-23T08:31:26.447Z,36.26
2022-12-23T08:33:55.957Z,35.86
2022-12-23T08:36:25.420Z,35.73
2022-12-23T08:38:53.779Z,36.24
2022-12-23T08:41:24.114Z,36.29
2022-12-23T08:43:51.330Z,36.04
2022-12-23T08:46:18.118Z,35.89
2022-12-23T08:48:49.098Z,36.12
2022-12-23T08:51:18.680Z,35.88
2022-12-23T08:53:46.352Z,35.76
2022-12-23T08:56:15.824Z,35.69
2022-12-23T08:58:45.547Z,35.66
2022-12-23T09:01:14.612Z,36.32
2022-12-23T09:03:42.236Z,35.61
2022-12-23T09:06:23.220Z,35.87
2022-12-23T09:08:53.936Z,36.14
2022-12-23T09:11:23.264Z,35.68
2022-12-23T09:13:50.219Z,35.98
2022-12-23T09:16:17.067Z,35.28
2022-12-23T09:18:43.753Z,35.73
2022-12-23T09:21:14.090Z,35.66
2022-12-23T09:23:41.429Z,35.66
2022-12-23T09:26:10.177Z,35.93
2022-12-23T09:28:37.086Z,35.51
2022-12-23T09:31:08.880Z,35.64
2022-12-23T09:33:36.388Z,35.66
2022-12-23T09:36:04.249Z,36.22
2022-12-23T09:38:31.417Z,35.40
2022-12-23T09:41:17.957Z,35.44
2022-12-23T09:44:03.211Z,35.39
2022-12-23T09:46:34.060Z,35.71
2022-12-23T09:49:11.147Z,35.82
2022-12-23T09:51:38.364Z,35.94
2022-12-23T09:54:11.971Z,35.63
2022-12-23T09:56:56.764Z,35.45
2022-12-23T09:59:42.127Z,35.70
2022-12-23T10:02:22.887Z,35.53
2022-12-23T10:05:23.649Z,35.72
2022-12-23T10:07:55.836Z,35.74
2022-12-23T10:10:45.683Z,35.70
2022-12-23T10:13:25.583Z,35.11
2022-12-23T10:15:54.427Z,35.75
2022-12-23T10:18:28.101Z,35.65
2022-12-23T10:21:03.150Z,35.48
2022-12-23T10:23:42.626Z,35.64
2022-12-23T10:26:31.990Z,35.79
2022-12-23T10:29:20.036Z,35.87
2022-12-23T10:32:02.091Z,35.57
2022-12-23T10:34:49.424Z,36.11
2022-12-23T10:37:38.810Z,35.89
2022-12-23T10:40:23.511Z,35.85
2022-12-23T10:43:14.687Z,35.81
2022-12-23T10:45:47.178Z,36.09
2022-12-23T10:48:27.648Z,35.96
2022-12-23T10:51:03.157Z,35.71
2022-12-23T10:53:36.991Z,35.75
2022-12-23T10:56:05.421Z,35.93
2022-12-23T10:58:32.160Z,35.72
2022-12-23T11:01:04.764Z,35.74
2022-12-23T11:04:03.773Z,35.71
2022-12-23T11:06:37.078Z,35.66
2022-12-23T11:09:05.603Z,35.92
2022-12-23T11:11:55.555Z,35.53
2022-12-23T11:14:41.495Z,35.70
2022-12-23T11:17:28.789Z,35.91
2022-12-23T11:20:10.380Z,35.70
2022-12-23T11:22:48.213Z,35.47
2022-12-23T11:25:29.630Z,35.94
2022-12-23T11:28:12.321Z,35.91
2022-12-23T11:30:55.129Z,35.91
2022-12-23T11:33:25.719Z,35.51
2022-12-23T11:36:13.636Z,35.99
2022-12-23T11:39:14.088Z,35.86
2022-12-23T11:41:45.632Z,35.85
2022-12-23T11:44:30.877Z,35.91
2022-12-23T11:46:57.708Z,35.60
2022-12-23T11:49:28.594Z,35.83
2022-12-23T11:52:09.793Z,35.70
2022-12-23T11:54:36.991Z,35.51
2022-12-23T11:57:08.042Z,35.87
2022-12-23T11:59:42.285Z,35.60
2022-12-23T12:02:39.824Z,35.76
2022-12-23T12:05:15.453Z,35.96
2022-12-23T12:07:45.486Z,36.07
2022-12-23T12:10:33.657Z,35.25
2022-12-23T12:13:05.325Z,35.75
2022-12-23T12:15:44.147Z,35.92
2022-12-23T12:18:15.858Z,35.72
2022-12-23T12:20:47.150Z,35.65
2022-12-23T12:23:32.610Z,36.03
2022-12-23T12:26:06.592Z,35.86
2022-12-23T12:28:38.352Z,35.83
2022-12-23T12:31:23.442Z,35.86
2022-12-23T12:34:05.132Z,35.97
2022-12-23T12:36:50.443Z,37.79
2022-12-23T12:39:28.007Z,37.55
2022-12-23T12:42:06.056Z,36.21
2022-12-23T12:45:00.458Z,36.06
2022-12-23T12:47:53.387Z,35.83
2022-12-23T12:50:33.129Z,35.80
2022-12-23T12:53:11.025Z,35.94
2022-12-23T12:55:42.489Z,35.29
2022-12-23T12:58:19.669Z,35.96
2022-12-23T13:01:10.065Z,35.49
2022-12-23T13:04:17.997Z,35.59
2022-12-23T13:06:55.731Z,35.76
2022-12-23T13:09:59.056Z,35.87
2022-12-23T13:13:01.027Z,36.03
2022-12-23T13:15:41.035Z,35.38
2022-12-23T13:18:20.713Z,35.62
2022-12-23T13:20:50.148Z,35.96
2022-12-23T13:23:44.065Z,35.98
2022-12-23T13:26:39.186Z,36.23
2022-12-23T13:29:29.824Z,35.90
2022-12-23T13:31:56.319Z,35.92
2022-12-23T13:34:31.864Z,35.41
2022-12-23T13:37:47.943Z,36.08
2022-12-23T13:40:54.962Z,35.41
2022-12-23T13:43:28.876Z,35.52
2022-12-23T13:46:00.059Z,35.93
2022-12-23T13:48:35.710Z,35.93
2022-12-23T13:51:25.012Z,35.52
2022-12-23T13:54:23.557Z,36.13
2022-12-23T13:57:08.365Z,35.77
2022-12-23T13:59:44.436Z,35.69
2022-12-23T14:02:50.790Z,35.27
2022-12-23T14:05:35.915Z,35.39
2022-12-23T14:08:18.410Z,36.09
2022-12-23T14:10:55.056Z,35.64
2022-12-23T14:13:25.136Z,35.89
2022-12-23T14:15:59.603Z,36.00
2022-12-23T14:18:55.221Z,35.88
2022-12-23T14:21:41.622Z,36.24
2022-12-23T14:24:33.486Z,36.63
2022-12-23T14:27:13.445Z,36.84
2022-12-23T14:29:50.426Z,36.53
2022-12-23T14:32:36.254Z,36.64
2022-12-23T14:35:05.203Z,36.58
2022-12-23T14:37:34.480Z,36.48
2022-12-23T14:40:39.046Z,36.40
2022-12-23T14:43:26.461Z,36.51
2022-12-23T14:46:06.747Z,36.02
2022-12-23T14:48:36.102Z,36.16
2022-12-23T14:51:31.482Z,36.42
2022-12-23T14:53:58.021Z,36.44
2022-12-23T14:56:40.283Z,36.37
2022-12-23T14:59:29.423Z,36.63
2022-12-23T15:01:59.547Z,36.35
2022-12-23T15:04:30.261Z,36.23
2022-12-23T15:07:03.332Z,36.29
2022-12-23T15:09:46.355Z,36.42
2022-12-23T15:12:18.814Z,36.41
2022-12-23T15:14:56.400Z,36.13
2022-12-23T15:17:27.577Z,36.25
2022-12-23T15:20:10.717Z,35.96
2022-12-23T15:22:38.996Z,35.82
2022-12-23T15:25:18.334Z,36.09
2022-12-23T15:27:45.083Z,36.18
2022-12-23T15:30:13.628Z,36.29
2022-12-23T15:32:46.622Z,36.46
2022-12-23T15:35:25.132Z,36.15
2022-12-23T15:37:52.227Z,36.14
2022-12-23T15:40:38.786Z,36.20
2022-12-23T15:43:19.016Z,36.16
2022-12-23T15:45:45.981Z,36.39
2022-12-23T15:48:30.096Z,36.78
2022-12-23T15:51:03.997Z,36.81
2022-12-23T15:53:44.036Z,36.62
2022-12-23T15:56:23.885Z,37.29
2022-12-23T15:58:50.747Z,37.03
2022-12-23T16:01:22.005Z,36.93
2022-12-23T16:03:55.232Z,36.96
2022-12-23T16:06:35.725Z,36.70
2022-12-23T16:09:22.275Z,37.45
2022-12-23T16:11:57.991Z,36.63
2022-12-23T16:14:30.872Z,36.41
2022-12-23T16:17:09.844Z,36.88
2022-12-23T16:19:38.665Z,36.51
2022-12-23T16:22:33.942Z,36.40
2022-12-23T16:25:03.469Z,36.91
2022-12-23T16:27:43.267Z,36.79
2022-12-23T16:30:15.738Z,36.64
2022-12-23T16:32:56.815Z,36.67
2022-12-23T16:35:37.578Z,36.63
2022-12-23T16:38:22.771Z,36.36
2022-12-23T16:40:53.761Z,36.43
2022-12-23T16:43:22.661Z,36.37
2022-12-23T16:45:52.976Z,36.32
2022-12-23T16:48:36.915Z,36.54
2022-12-23T16:51:07.427Z,36.45
2022-12-23T16:53:34.381Z,36.73
2022-12-23T16:56:01.513Z,36.98
2022-12-23T16:58:29.209Z,36.61
2022-12-23T17:00:56.564Z,37.02
2022-12-23T17:03:23.105Z,36.25
2022-12-23T17:05:49.670Z,36.39
2022-12-23T17:08:16.292Z,36.03
2022-12-23T17:10:44.680Z,36.00
2022-12-23T17:13:17.431Z,36.38
2022-12-23T17:15:44.754Z,36.61
2022-12-23T17:18:16.815Z,36.41
2022-12-23T17:20:45.329Z,36.51
2022-12-23T17:23:27.067Z,36.30
2022-12-23T17:25:53.950Z,36.73
2022-12-23T17:28:21.378Z,36.37
2022-12-23T17:30:54.384Z,36.43
2022-12-23T17:33:21.452Z,36.56
2022-12-23T17:35:48.095Z,36.62
2022-12-23T17:38:16.560Z,36.73
2022-12-23T17:40:46.657Z,36.21
2022-12-23T17:43:15.117Z,36.58
2022-12-23T17:45:42.251Z,36.44
2022-12-23T17:48:19.959Z,36.61
2022-12-23T17:50:47.949Z,36.38
2022-12-23T17:53:16.188Z,35.92
2022-12-23T17:55:42.809Z,36.57
2022-12-23T17:58:09.765Z,36.58
2022-12-23T18:00:38.148Z,36.82
2022-12-23T18:03:22.721Z,36.30
2022-12-23T18:05:51.144Z,36.57
2022-12-23T18:08:20.940Z,36.71
2022-12-23T18:10:47.675Z,36.04
2022-12-23T18:13:18.423Z,36.63
2022-12-23T18:15:45.452Z,36.42
2022-12-23T18:18:28.653Z,36.50
2022-12-23T18:20:58.202Z,36.58
2022-12-23T18:23:28.139Z,36.86
2022-12-23T18:25:55.763Z,36.73
2022-12-23T18:28:22.803Z,36.54
2022-12-23T18:30:51.449Z,36.17
2022-12-23T18:33:18.522Z,36.51
2022-12-23T18:35:47.415Z,36.65
2022-12-23T18:38:15.205Z,36.78
2022-12-23T18:40:42.794Z,36.52
2022-12-23T18:43:24.115Z,36.56
2022-12-23T18:45:53.602Z,36.64
2022-12-23T18:48:21.487Z,36.64
2022-12-23T18:50:48.414Z,36.28
2022-12-23T18:53:23.862Z,36.69
2022-12-23T18:55:52.246Z,36.30
2022-12-23T18:58:19.337Z,36.28
2022-12-23T19:00:47.885Z,36.47
2022-12-23T19:03:25.148Z,36.12
2022-12-23T19:05:53.001Z,36.48
2022-12-23T19:08:26.388Z,36.09
2022-12-23T19:10:54.024Z,36.33
2022-12-23T19:13:20.565Z,36.29
2022-12-23T19:15:47.390Z,36.12
2022-12-23T19:18:19.167Z,36.07
2022-12-23T19:20:46.967Z,36.14
2022-12-23T19:23:14.308Z,36.21
2022-12-23T19:25:42.135Z,35.80
2022-12-23T19:28:09.504Z,36.51
2022-12-23T19:30:36.614Z,36.09
2022-12-23T19:33:03.263Z,36.47
2022-12-23T19:35:29.802Z,36.33
2022-12-23T19:37:56.386Z,35.99
2022-12-23T19:40:22.951Z,36.67
2022-12-23T19:42:49.501Z,36.13
2022-12-23T19:45:17.076Z,36.46
2022-12-23T19:47:43.780Z,36.20
2022-12-23T19:50:11.777Z,36.07
2022-12-23T19:52:38.428Z,36.18
2022-12-23T19:55:05.536Z,36.45
2022-12-23T19:57:32.119Z,35.70
2022-12-23T19:59:58.949Z,36.41
2022-12-23T20:02:25.639Z,36.09
2022-12-23T20:04:52.203Z,36.40
2022-12-23T20:07:18.765Z,36.16
2022-12-23T20:09:45.305Z,36.47
2022-12-23T20:12:12.091Z,36.43
2022-12-23T20:14:38.717Z,36.13
2022-12-23T20:17:05.255Z,36.39
2022-12-23T20:19:32.232Z,36.70
2022-12-23T20:21:58.808Z,36.11
2022-12-23T20:24:25.416Z,36.13
2022-12-23T20:26:52.115Z,36.55
2022-12-23T20:29:18.716Z,36.56
2022-12-23T20:31:45.676Z,36.23
2022-12-23T20:34:16.101Z,36.20
2022-12-23T20:36:42.957Z,36.26
2022-12-23T20:39:09.910Z,36.26
2022-12-23T20:41:36.507Z,36.00
2022-12-23T20:44:33.729Z,36.30
2022-12-23T20:46:49.737Z,36.00
2022-12-23T20:49:16.358Z,36.10
2022-12-23T20:51:42.928Z,36.46
2022-12-23T20:54:09.775Z,36.19
2022-12-23T20:56:36.328Z,36.48
2022-12-23T20:59:03.892Z,36.36
2022-12-23T21:01:33.225Z,36.38
2022-12-23T21:04:02.228Z,36.03
2022-12-23T21:06:30.856Z,36.13
2022-12-23T21:08:59.780Z,36.05
2022-12-23T21:11:31.388Z,36.24
2022-12-23T21:14:06.449Z,36.12
2022-12-23T21:16:35.391Z,35.97
2022-12-23T21:19:02.182Z,36.36
2022-12-23T21:21:31.068Z,36.00
2022-12-23T21:24:04.516Z,36.07
2022-12-23T21:26:33.246Z,35.66
2022-12-23T21:29:01.402Z,35.76
2022-12-23T21:31:29.835Z,36.23
2022-12-23T21:33:57.329Z,36.04
2022-12-23T21:36:26.547Z,36.32
2022-12-23T21:38:53.178Z,36.52
2022-12-23T21:41:22.093Z,36.22
2022-12-23T21:43:49.479Z,36.10
2022-12-23T21:46:19.249Z,36.41
2022-12-23T21:48:45.984Z,36.08
2022-12-23T21:51:24.506Z,36.05
2022-12-23T21:53:53.483Z,36.23
2022-12-23T21:56:24.338Z,36.67
2022-12-23T21:58:55.026Z,36.10
2022-12-23T22:01:22.071Z,36.37
2022-12-23T22:03:49.913Z,36.53
2022-12-23T22:06:19.947Z,36.12
2022-12-23T22:08:47.348Z,36.52
2022-12-23T22:11:30.071Z,36.34
2022-12-23T22:13:58.538Z,36.02
2022-12-23T22:16:27.209Z,36.29
2022-12-23T22:18:55.128Z,36.45
2022-12-23T22:21:23.572Z,36.54
2022-12-23T22:23:51.725Z,36.33
2022-12-23T22:26:25.170Z,36.35
2022-12-23T22:28:54.318Z,36.53
2022-12-23T22:31:30.622Z,36.47
2022-12-23T22:33:57.399Z,36.37
2022-12-23T22:36:24.066Z,36.48
2022-12-23T22:38:53.366Z,36.28
2022-12-23T22:41:20.523Z,36.46
2022-12-23T22:43:47.396Z,36.29
2022-12-23T22:46:14.133Z,36.17
2022-12-23T22:48:40.840Z,36.36
2022-12-23T22:51:18.559Z,36.62
2022-12-23T22:53:45.877Z,36.08
2022-12-23T22:56:14.796Z,36.12
2022-12-23T22:58:41.415Z,36.23
2022-12-23T23:01:27.597Z,36.50
2022-12-23T23:03:58.499Z,36.09
2022-12-23T23:06:27.200Z,36.16
2022-12-23T23:08:54.688Z,36.46
2022-12-23T23:11:21.412Z,36.45
2022-12-23T23:13:48.415Z,36.47
2022-12-23T23:16:15.032Z,36.42
2022-12-23T23:18:41.628Z,35.92
2022-12-23T23:21:09.721Z,36.03
2022-12-23T23:23:36.415Z,36.52
2022-12-23T23:26:03.449Z,36.21
2022-12-23T23:28:30.395Z,36.37
2022-12-23T23:31:17.114Z,35.95
2022-12-23T23:33:43.467Z,36.34
2022-12-23T23:36:10.570Z,36.29
2022-12-23T23:38:37.270Z,36.08
2022-12-23T23:41:04.286Z,36.09
2022-12-23T23:43:30.860Z,36.44
2022-12-23T23:45:57.515Z,36.39
2022-12-23T23:48:24.090Z,36.28
2022-12-23T23:50:51.343Z,36.07
2022-12-23T23:53:17.986Z,36.21
2022-12-23T23:55:44.629Z,36.13
2022-12-23T23:58:11.866Z,36.41
